createdAt,value
2019-03-29T00:01:08.582Z,17.80
2019-03-29T00:03:38.366Z,18.33
2019-03-29T00:06:08.234Z,17.80
2019-03-29T00:08:37.827Z,21.13
2019-03-29T00:11:07.701Z,16.90
2019-03-29T00:13:37.427Z,18.33
2019-03-29T00:16:07.029Z,18.67
2019-03-29T00:18:36.592Z,18.17
2019-03-29T00:21:06.391Z,18.27
2019-03-29T00:23:35.998Z,17.67
2019-03-29T00:26:06.035Z,16.90
2019-03-29T00:28:36.893Z,18.77
2019-03-29T00:31:06.676Z,17.30
2019-03-29T00:33:36.593Z,18.33
2019-03-29T00:36:06.179Z,18.90
2019-03-29T00:38:35.871Z,19.83
2019-03-29T00:41:05.535Z,17.10
2019-03-29T00:43:35.180Z,18.63
2019-03-29T00:46:04.832Z,19.00
2019-03-29T00:48:35.820Z,19.17
2019-03-29T00:51:05.690Z,17.00
2019-03-29T00:53:35.934Z,18.70
2019-03-29T00:56:05.729Z,20.63
2019-03-29T00:58:35.357Z,20.60
2019-03-29T01:01:05.115Z,17.97
2019-03-29T01:03:34.736Z,18.53
2019-03-29T01:06:04.552Z,18.90
2019-03-29T01:08:34.162Z,18.97
2019-03-29T01:11:03.822Z,19.80
2019-03-29T01:13:33.426Z,21.20
2019-03-29T01:16:03.083Z,19.00
2019-03-29T01:18:32.694Z,22.47
2019-03-29T01:21:02.391Z,22.80
2019-03-29T01:23:32.032Z,20.60
2019-03-29T01:26:03.754Z,16.73
2019-03-29T01:28:33.361Z,21.50
2019-03-29T01:31:02.990Z,19.07
2019-03-29T01:33:32.707Z,19.60
2019-03-29T01:36:02.412Z,22.00
2019-03-29T01:38:32.016Z,21.67
2019-03-29T01:41:01.666Z,22.33
2019-03-29T01:43:31.331Z,19.23
2019-03-29T01:46:01.040Z,18.93
2019-03-29T01:48:30.734Z,20.67
2019-03-29T01:51:00.454Z,20.63
2019-03-29T01:53:31.178Z,19.10
2019-03-29T01:56:00.864Z,16.87
2019-03-29T01:58:30.647Z,20.10
2019-03-29T02:01:00.354Z,18.07
2019-03-29T02:03:29.949Z,19.87
2019-03-29T02:05:59.585Z,19.93
2019-03-29T02:08:35.898Z,20.47
2019-03-29T02:11:03.612Z,18.40
2019-03-29T02:13:33.238Z,21.33
2019-03-29T02:16:03.812Z,21.83
2019-03-29T02:18:33.630Z,22.67
2019-03-29T02:21:03.270Z,21.47
2019-03-29T02:23:32.866Z,22.90
2019-03-29T02:26:02.728Z,21.70
2019-03-29T02:28:32.337Z,23.47
2019-03-29T02:31:02.060Z,20.53
2019-03-29T02:33:31.691Z,19.93
2019-03-29T02:36:01.401Z,18.37
2019-03-29T02:38:31.044Z,25.07
2019-03-29T02:41:00.677Z,19.57
2019-03-29T02:43:30.394Z,20.47
2019-03-29T02:46:00.505Z,20.13
2019-03-29T02:48:30.076Z,20.80
2019-03-29T02:50:59.693Z,20.30
2019-03-29T02:53:29.373Z,18.40
2019-03-29T02:55:59.031Z,19.30
2019-03-29T02:58:28.589Z,18.13
2019-03-29T03:00:58.298Z,18.07
2019-03-29T03:03:28.109Z,22.33
2019-03-29T03:05:58.161Z,20.53
2019-03-29T03:08:32.861Z,19.67
2019-03-29T03:11:01.193Z,22.43
2019-03-29T03:13:30.872Z,18.00
2019-03-29T03:16:00.495Z,20.10
2019-03-29T03:18:30.181Z,20.23
2019-03-29T03:20:59.804Z,18.83
2019-03-29T03:23:29.462Z,24.00
2019-03-29T03:25:59.105Z,20.73
2019-03-29T03:28:28.880Z,17.60
2019-03-29T03:30:58.464Z,18.60
2019-03-29T03:33:28.482Z,19.00
2019-03-29T03:35:58.065Z,19.70
2019-03-29T03:38:27.687Z,17.97
2019-03-29T03:40:57.571Z,19.43
2019-03-29T03:43:27.345Z,20.13
2019-03-29T03:45:57.002Z,19.50
2019-03-29T03:48:27.115Z,17.93
2019-03-29T03:50:57.247Z,18.93
2019-03-29T03:53:26.841Z,17.40
2019-03-29T03:55:58.051Z,17.50
2019-03-29T03:58:28.726Z,18.83
2019-03-29T04:00:59.128Z,18.07
2019-03-29T04:03:29.105Z,16.67
2019-03-29T04:05:59.230Z,18.03
2019-03-29T04:08:29.128Z,19.80
2019-03-29T04:11:00.025Z,15.93
2019-03-29T04:13:29.608Z,15.90
2019-03-29T04:15:59.206Z,18.60
2019-03-29T04:18:28.899Z,19.87
2019-03-29T04:20:58.552Z,19.43
2019-03-29T04:23:28.245Z,18.03
2019-03-29T04:25:57.891Z,19.80
2019-03-29T04:28:29.285Z,20.80
2019-03-29T04:30:59.019Z,17.63
2019-03-29T04:33:28.704Z,22.10
2019-03-29T04:35:58.415Z,22.03
2019-03-29T04:38:28.120Z,22.53
2019-03-29T04:40:57.810Z,26.00
2019-03-29T04:43:27.468Z,26.00
2019-03-29T04:45:57.069Z,36.30
2019-03-29T04:48:27.159Z,30.30
2019-03-29T04:50:56.857Z,30.53
2019-03-29T04:53:26.449Z,26.70
2019-03-29T04:55:56.095Z,24.80
2019-03-29T04:58:25.746Z,24.13
2019-03-29T05:00:55.461Z,23.87
2019-03-29T05:03:25.236Z,22.43
2019-03-29T05:05:55.015Z,23.23
2019-03-29T05:08:24.763Z,22.30
2019-03-29T05:10:54.405Z,25.23
2019-03-29T05:13:24.064Z,23.63
2019-03-29T05:15:53.704Z,23.43
2019-03-29T05:18:24.554Z,21.97
2019-03-29T05:21:01.084Z,22.30
2019-03-29T05:23:43.295Z,19.97
2019-03-29T05:26:41.888Z,19.83
2019-03-29T05:29:12.307Z,21.60
2019-03-29T05:31:43.589Z,22.13
2019-03-29T05:34:13.168Z,22.77
2019-03-29T05:36:43.177Z,22.27
2019-03-29T05:39:12.780Z,23.50
2019-03-29T05:41:42.771Z,25.60
2019-03-29T05:44:12.436Z,21.30
2019-03-29T05:47:02.240Z,23.73
2019-03-29T05:49:31.508Z,23.80
2019-03-29T05:52:01.164Z,23.37
2019-03-29T05:54:30.940Z,24.10
2019-03-29T05:57:00.630Z,24.40
2019-03-29T05:59:30.494Z,25.60
2019-03-29T06:02:01.971Z,26.53
2019-03-29T06:04:32.070Z,25.80
2019-03-29T06:07:01.883Z,25.77
2019-03-29T06:09:38.371Z,23.30
2019-03-29T06:12:15.751Z,25.27
2019-03-29T06:14:48.163Z,26.50
2019-03-29T06:17:24.291Z,27.13
2019-03-29T06:20:11.820Z,25.70
2019-03-29T06:22:45.016Z,24.10
2019-03-29T06:25:15.012Z,24.33
2019-03-29T06:27:44.818Z,23.47
2019-03-29T06:30:17.698Z,20.97
2019-03-29T06:32:47.581Z,21.73
2019-03-29T06:35:17.500Z,25.33
2019-03-29T06:37:47.480Z,24.40
2019-03-29T06:40:28.749Z,22.10
2019-03-29T06:42:59.044Z,25.23
2019-03-29T06:45:28.810Z,22.97
2019-03-29T06:47:58.771Z,20.40
2019-03-29T06:50:28.472Z,24.00
2019-03-29T06:52:58.583Z,20.77
2019-03-29T06:55:28.268Z,21.23
2019-03-29T06:57:57.978Z,20.40
2019-03-29T07:00:28.017Z,23.60
2019-03-29T07:02:58.131Z,22.20
2019-03-29T07:05:32.478Z,24.33
2019-03-29T07:08:03.983Z,25.00
2019-03-29T07:10:33.935Z,20.77
2019-03-29T07:13:03.688Z,21.23
2019-03-29T07:15:33.271Z,23.90
2019-03-29T07:18:03.086Z,25.97
2019-03-29T07:20:32.804Z,23.60
2019-03-29T07:23:02.436Z,22.47
2019-03-29T07:25:32.157Z,23.90
2019-03-29T07:28:02.090Z,21.00
2019-03-29T07:30:32.922Z,21.07
2019-03-29T07:33:02.781Z,20.83
2019-03-29T07:35:32.603Z,21.80
2019-03-29T07:38:02.191Z,25.77
2019-03-29T07:40:35.079Z,22.20
2019-03-29T07:43:04.927Z,19.30
2019-03-29T07:45:34.616Z,22.43
2019-03-29T07:48:04.190Z,20.60
2019-03-29T07:50:35.309Z,16.97
2019-03-29T07:53:05.177Z,13.80
2019-03-29T07:55:37.169Z,15.77
2019-03-29T07:58:06.203Z,11.03
2019-03-29T08:00:35.960Z,11.73
2019-03-29T08:03:05.772Z,10.30
2019-03-29T08:05:35.621Z,9.43
2019-03-29T08:08:22.761Z,11.73
2019-03-29T08:10:40.440Z,13.23
2019-03-29T08:13:10.234Z,9.10
2019-03-29T08:15:40.214Z,8.57
2019-03-29T08:18:10.137Z,8.10
2019-03-29T08:20:43.952Z,6.60
2019-03-29T08:23:11.759Z,7.80
2019-03-29T08:25:41.495Z,9.77
2019-03-29T08:28:11.423Z,7.37
2019-03-29T08:30:41.641Z,6.20
2019-03-29T08:33:11.429Z,7.93
2019-03-29T08:35:42.136Z,7.33
2019-03-29T08:38:11.851Z,7.53
2019-03-29T08:40:45.256Z,10.43
2019-03-29T08:43:14.354Z,6.27
2019-03-29T08:45:44.176Z,5.93
2019-03-29T08:48:14.910Z,7.87
2019-03-29T08:50:44.652Z,5.27
2019-03-29T08:53:14.671Z,7.37
2019-03-29T08:55:46.034Z,7.27
2019-03-29T08:58:15.816Z,6.20
2019-03-29T09:00:45.834Z,7.03
2019-03-29T09:03:15.894Z,6.63
2019-03-29T09:05:45.965Z,7.57
2019-03-29T09:08:16.071Z,7.73
2019-03-29T09:10:46.627Z,6.53
2019-03-29T09:13:16.392Z,5.17
2019-03-29T09:15:46.151Z,6.23
2019-03-29T09:18:15.814Z,7.37
2019-03-29T09:20:45.503Z,5.47
2019-03-29T09:23:15.335Z,4.07
2019-03-29T09:25:45.508Z,5.10
2019-03-29T09:28:15.266Z,4.60
2019-03-29T09:30:45.443Z,4.67
2019-03-29T09:33:15.345Z,3.90
2019-03-29T09:35:45.497Z,5.73
2019-03-29T09:38:17.142Z,5.80
2019-03-29T09:40:57.737Z,3.53
2019-03-29T09:43:18.375Z,3.37
2019-03-29T09:45:48.004Z,4.87
2019-03-29T09:48:17.870Z,3.70
2019-03-29T09:50:50.934Z,3.40
2019-03-29T09:53:21.031Z,4.67
2019-03-29T09:55:53.374Z,5.73
2019-03-29T09:58:22.350Z,3.90
2019-03-29T10:00:54.114Z,4.17
2019-03-29T10:03:23.911Z,3.90
2019-03-29T10:05:54.013Z,5.60
2019-03-29T10:08:23.835Z,5.87
2019-03-29T10:11:15.876Z,5.53
2019-03-29T10:13:44.159Z,8.97
2019-03-29T10:16:18.633Z,6.23
2019-03-29T10:18:48.246Z,5.27
2019-03-29T10:21:18.264Z,4.40
2019-03-29T10:23:48.221Z,3.80
2019-03-29T10:26:18.163Z,5.47
2019-03-29T10:28:50.194Z,4.97
2019-03-29T10:31:31.544Z,5.30
2019-03-29T10:33:51.773Z,4.27
2019-03-29T10:36:21.520Z,4.90
2019-03-29T10:38:51.625Z,6.03
2019-03-29T10:41:22.775Z,4.90
2019-03-29T10:43:52.775Z,6.60
2019-03-29T10:46:22.573Z,4.43
2019-03-29T10:48:52.391Z,7.10
2019-03-29T10:51:22.414Z,6.27
2019-03-29T10:53:52.828Z,7.70
2019-03-29T10:56:33.340Z,4.67
2019-03-29T10:58:54.303Z,7.40
2019-03-29T11:01:24.838Z,6.43
2019-03-29T11:03:55.355Z,6.67
2019-03-29T11:06:25.097Z,5.50
2019-03-29T11:08:55.110Z,8.43
2019-03-29T11:11:25.026Z,6.07
2019-03-29T11:13:56.612Z,4.93
2019-03-29T11:16:26.879Z,5.47
2019-03-29T11:18:58.189Z,6.47
2019-03-29T11:21:27.961Z,5.70
2019-03-29T11:23:57.864Z,4.50
2019-03-29T11:26:27.547Z,4.23
2019-03-29T11:29:01.637Z,4.57
2019-03-29T11:31:31.523Z,5.90
2019-03-29T11:34:01.599Z,5.20
2019-03-29T11:36:33.043Z,5.80
2019-03-29T11:39:04.714Z,4.87
2019-03-29T11:41:34.448Z,8.03
2019-03-29T11:44:04.990Z,9.10
2019-03-29T11:46:34.852Z,5.37
2019-03-29T11:49:04.618Z,5.03
2019-03-29T11:51:34.413Z,6.63
2019-03-29T11:54:04.279Z,5.53
2019-03-29T11:56:34.701Z,6.57
2019-03-29T11:59:04.528Z,7.53
2019-03-29T12:01:34.582Z,7.83
2019-03-29T12:04:05.939Z,6.90
2019-03-29T12:06:36.657Z,8.33
2019-03-29T12:09:13.364Z,6.30
2019-03-29T12:11:43.435Z,6.00
2019-03-29T12:14:13.360Z,5.47
2019-03-29T12:16:45.481Z,6.90
2019-03-29T12:19:15.724Z,6.13
2019-03-29T12:21:45.530Z,5.77
2019-03-29T12:24:15.533Z,8.07
2019-03-29T12:26:45.303Z,8.20
2019-03-29T12:29:15.637Z,7.30
2019-03-29T12:31:45.583Z,7.77
2019-03-29T12:34:17.352Z,6.30
2019-03-29T12:36:47.265Z,7.17
2019-03-29T12:39:17.068Z,5.77
2019-03-29T12:41:46.932Z,5.43
2019-03-29T12:44:16.638Z,5.93
2019-03-29T12:46:48.359Z,6.13
2019-03-29T12:49:18.889Z,5.60
2019-03-29T12:51:48.753Z,5.77
2019-03-29T12:54:18.949Z,6.33
2019-03-29T12:56:48.790Z,4.97
2019-03-29T12:59:20.030Z,5.63
2019-03-29T13:01:50.155Z,6.50
2019-03-29T13:04:19.885Z,6.33
2019-03-29T13:06:49.679Z,5.57
2019-03-29T13:09:19.521Z,7.17
2019-03-29T13:11:56.024Z,8.47
2019-03-29T13:14:26.518Z,6.50
2019-03-29T13:16:56.511Z,7.53
2019-03-29T13:19:26.804Z,9.27
2019-03-29T13:21:56.422Z,6.30
2019-03-29T13:24:26.174Z,6.23
2019-03-29T13:26:56.130Z,7.07
2019-03-29T13:29:28.868Z,5.97
2019-03-29T13:31:59.337Z,6.13
2019-03-29T13:34:29.112Z,8.37
2019-03-29T13:36:59.923Z,8.10
2019-03-29T13:39:29.826Z,7.80
2019-03-29T13:41:59.651Z,6.67
2019-03-29T13:44:39.160Z,6.37
2019-03-29T13:47:08.870Z,7.40
2019-03-29T13:49:38.545Z,6.90
2019-03-29T13:52:08.633Z,6.10
2019-03-29T13:54:38.639Z,9.17
2019-03-29T13:57:08.551Z,5.93
2019-03-29T13:59:38.601Z,6.80
2019-03-29T14:02:08.397Z,6.07
2019-03-29T14:04:38.491Z,6.57
2019-03-29T14:07:09.279Z,6.50
2019-03-29T14:09:39.075Z,7.10
2019-03-29T14:12:08.996Z,7.97
2019-03-29T14:14:39.053Z,6.00
2019-03-29T14:17:09.049Z,7.63
2019-03-29T14:19:39.062Z,7.97
2019-03-29T14:22:11.417Z,7.13
2019-03-29T14:24:41.150Z,6.73
2019-03-29T14:27:10.994Z,10.93
2019-03-29T14:29:41.105Z,7.10
2019-03-29T14:32:10.971Z,6.43
2019-03-29T14:34:40.968Z,6.60
2019-03-29T14:37:10.619Z,6.00
2019-03-29T14:39:40.497Z,10.50
2019-03-29T14:42:12.641Z,9.37
2019-03-29T14:44:52.321Z,8.87
2019-03-29T14:47:13.638Z,7.87
2019-03-29T14:49:43.581Z,8.50
2019-03-29T14:52:13.478Z,8.03
2019-03-29T14:54:43.331Z,12.03
2019-03-29T14:57:14.873Z,8.20
2019-03-29T14:59:44.718Z,7.00
2019-03-29T15:02:14.368Z,7.90
2019-03-29T15:04:44.100Z,7.67
2019-03-29T15:07:14.059Z,8.17
2019-03-29T15:09:44.144Z,8.43
2019-03-29T15:12:13.901Z,9.77
2019-03-29T15:14:45.248Z,8.17
2019-03-29T15:17:21.668Z,7.27
2019-03-29T15:19:51.608Z,7.47
2019-03-29T15:22:22.068Z,8.77
2019-03-29T15:24:52.027Z,8.23
2019-03-29T15:27:21.839Z,8.47
2019-03-29T15:29:51.467Z,8.80
2019-03-29T15:32:21.103Z,8.40
2019-03-29T15:34:51.205Z,8.03
2019-03-29T15:37:21.156Z,8.00
2019-03-29T15:39:50.898Z,7.50
2019-03-29T15:42:20.786Z,7.87
2019-03-29T15:44:50.793Z,6.57
2019-03-29T15:47:20.428Z,7.20
2019-03-29T15:49:56.331Z,6.47
2019-03-29T15:52:22.111Z,6.93
2019-03-29T15:54:52.012Z,7.80
2019-03-29T15:57:21.819Z,8.83
2019-03-29T15:59:51.989Z,9.13
2019-03-29T16:02:22.080Z,8.93
2019-03-29T16:04:53.653Z,7.57
2019-03-29T16:07:26.022Z,8.37
2019-03-29T16:09:56.355Z,9.87
2019-03-29T16:12:27.391Z,8.17
2019-03-29T16:14:57.567Z,8.13
2019-03-29T16:17:27.851Z,9.33
2019-03-29T16:19:58.109Z,7.70
2019-03-29T16:22:28.027Z,8.07
2019-03-29T16:24:57.850Z,9.80
2019-03-29T16:27:27.962Z,7.97
2019-03-29T16:29:58.380Z,9.83
2019-03-29T16:32:38.436Z,7.93
2019-03-29T16:35:12.006Z,7.37
2019-03-29T16:37:56.618Z,8.83
2019-03-29T16:40:16.842Z,8.97
2019-03-29T16:42:57.661Z,7.93
2019-03-29T16:45:28.217Z,9.27
2019-03-29T16:48:17.999Z,8.43
2019-03-29T16:50:47.873Z,9.23
2019-03-29T16:53:17.681Z,7.53
2019-03-29T16:55:47.515Z,9.80
2019-03-29T16:58:17.399Z,7.53
2019-03-29T17:00:47.218Z,8.17
2019-03-29T17:03:17.007Z,10.43
2019-03-29T17:05:47.195Z,8.10
2019-03-29T17:08:17.089Z,9.57
2019-03-29T17:10:47.332Z,8.00
2019-03-29T17:13:17.442Z,8.53
2019-03-29T17:16:00.791Z,7.77
2019-03-29T17:18:29.116Z,9.27
2019-03-29T17:20:52.476Z,7.67
2019-03-29T17:23:46.418Z,8.83
2019-03-29T17:26:16.151Z,8.33
2019-03-29T17:28:45.924Z,9.00
2019-03-29T17:31:16.769Z,9.83
2019-03-29T17:33:46.619Z,10.83
2019-03-29T17:36:16.293Z,9.57
2019-03-29T17:38:46.360Z,9.70
2019-03-29T17:41:16.434Z,10.27
2019-03-29T17:43:50.836Z,9.73
2019-03-29T17:46:20.661Z,11.20
2019-03-29T17:48:50.334Z,9.43
2019-03-29T17:51:28.050Z,9.10
2019-03-29T17:53:58.019Z,10.63
2019-03-29T17:56:27.806Z,10.57
2019-03-29T17:58:57.754Z,10.37
2019-03-29T18:01:29.375Z,12.03
2019-03-29T18:04:09.550Z,10.43
2019-03-29T18:06:40.799Z,11.50
2019-03-29T18:09:10.802Z,10.20
2019-03-29T18:11:40.476Z,10.63
2019-03-29T18:14:10.526Z,9.10
2019-03-29T18:16:41.890Z,15.50
2019-03-29T18:19:11.742Z,10.17
2019-03-29T18:21:41.660Z,11.67
2019-03-29T18:24:11.487Z,11.23
2019-03-29T18:26:41.524Z,10.70
2019-03-29T18:29:11.496Z,11.17
2019-03-29T18:31:41.909Z,12.67
2019-03-29T18:34:11.632Z,10.70
2019-03-29T18:36:43.435Z,11.03
2019-03-29T18:39:13.475Z,11.63
2019-03-29T18:41:43.854Z,11.43
2019-03-29T18:44:13.742Z,13.90
2019-03-29T18:46:45.118Z,10.63
2019-03-29T18:49:15.428Z,11.77
2019-03-29T18:51:45.751Z,12.23
2019-03-29T18:54:15.353Z,10.13
2019-03-29T18:56:45.251Z,10.97
2019-03-29T18:59:14.902Z,11.00
2019-03-29T19:01:46.282Z,12.00
2019-03-29T19:04:15.910Z,11.20
2019-03-29T19:06:45.775Z,11.80
2019-03-29T19:09:15.752Z,11.77
2019-03-29T19:11:45.512Z,10.90
2019-03-29T19:14:15.121Z,13.97
2019-03-29T19:16:58.091Z,13.00
2019-03-29T19:19:17.359Z,11.97
2019-03-29T19:21:47.136Z,12.27
2019-03-29T19:24:17.071Z,12.97
2019-03-29T19:26:47.769Z,12.80
2019-03-29T19:29:19.619Z,13.90
2019-03-29T19:31:49.811Z,14.73
2019-03-29T19:34:20.375Z,13.20
2019-03-29T19:36:50.655Z,14.50
2019-03-29T19:39:20.778Z,13.23
2019-03-29T19:41:50.888Z,13.37
2019-03-29T19:44:20.500Z,12.00
2019-03-29T19:46:50.646Z,14.50
2019-03-29T19:49:20.719Z,14.37
2019-03-29T19:51:50.724Z,13.40
2019-03-29T19:54:20.385Z,13.50
2019-03-29T19:56:51.527Z,14.07
2019-03-29T19:59:21.896Z,12.67
2019-03-29T20:01:52.664Z,15.43
2019-03-29T20:04:22.402Z,16.93
2019-03-29T20:06:52.298Z,13.43
2019-03-29T20:09:23.922Z,15.83
2019-03-29T20:11:54.001Z,14.10
2019-03-29T20:14:24.063Z,19.10
2019-03-29T20:16:55.356Z,20.37
2019-03-29T20:19:25.717Z,20.83
2019-03-29T20:21:55.593Z,18.27
2019-03-29T20:24:25.654Z,17.93
2019-03-29T20:26:55.617Z,17.63
2019-03-29T20:29:25.599Z,20.27
2019-03-29T20:31:55.291Z,20.23
2019-03-29T20:34:25.062Z,19.10
2019-03-29T20:36:54.839Z,86.80
2019-03-29T20:39:26.287Z,85.43
2019-03-29T20:41:55.967Z,31.87
2019-03-29T20:44:25.693Z,23.33
2019-03-29T20:46:55.646Z,21.20
2019-03-29T20:49:25.563Z,18.17
2019-03-29T20:51:55.084Z,16.70
2019-03-29T20:54:24.661Z,17.53
2019-03-29T20:56:54.258Z,15.30
2019-03-29T20:59:23.826Z,16.03
2019-03-29T21:01:53.888Z,16.27
2019-03-29T21:04:23.513Z,16.63
2019-03-29T21:06:53.092Z,16.80
2019-03-29T21:09:22.871Z,16.43
2019-03-29T21:11:52.825Z,18.67
2019-03-29T21:14:22.410Z,15.87
2019-03-29T21:16:52.098Z,17.37
2019-03-29T21:19:21.751Z,20.90
2019-03-29T21:21:51.311Z,15.40
2019-03-29T21:24:20.997Z,15.70
2019-03-29T21:26:50.554Z,16.67
2019-03-29T21:29:21.768Z,16.97
2019-03-29T21:31:51.369Z,15.07
2019-03-29T21:34:21.248Z,17.67
2019-03-29T21:36:51.060Z,13.50
2019-03-29T21:39:20.640Z,14.53
2019-03-29T21:41:50.300Z,16.97
2019-03-29T21:44:19.883Z,13.77
2019-03-29T21:46:49.506Z,14.83
2019-03-29T21:49:20.628Z,13.83
2019-03-29T21:51:50.190Z,13.27
2019-03-29T21:54:19.819Z,13.73
2019-03-29T21:56:49.538Z,15.67
2019-03-29T21:59:20.621Z,15.43
2019-03-29T22:01:52.142Z,12.20
2019-03-29T22:04:21.718Z,13.60
2019-03-29T22:06:51.277Z,12.97
2019-03-29T22:09:20.933Z,13.97
2019-03-29T22:11:50.487Z,13.17
2019-03-29T22:14:20.096Z,13.00
2019-03-29T22:16:49.663Z,14.17
2019-03-29T22:19:21.099Z,13.00
2019-03-29T22:21:50.676Z,13.63
2019-03-29T22:24:20.263Z,13.80
2019-03-29T22:26:49.860Z,12.97
2019-03-29T22:29:19.494Z,11.90
2019-03-29T22:31:49.060Z,11.37
2019-03-29T22:34:18.652Z,10.00
2019-03-29T22:36:48.200Z,9.90
2019-03-29T22:39:17.766Z,6.27
2019-03-29T22:41:47.351Z,9.57
2019-03-29T22:44:16.903Z,6.53
2019-03-29T22:46:46.456Z,8.17
2019-03-29T22:49:16.046Z,4.90
2019-03-29T22:51:45.797Z,4.90
2019-03-29T22:54:15.329Z,3.83
2019-03-29T22:56:44.923Z,6.20
2019-03-29T22:59:14.573Z,4.80
2019-03-29T23:01:45.847Z,6.13
2019-03-29T23:04:15.701Z,5.07
2019-03-29T23:06:45.258Z,6.20
2019-03-29T23:09:14.798Z,4.23
2019-03-29T23:11:44.373Z,5.93
2019-03-29T23:14:13.942Z,4.77
2019-03-29T23:16:43.585Z,6.27
2019-03-29T23:19:13.141Z,6.27
2019-03-29T23:21:42.792Z,5.17
2019-03-29T23:24:12.337Z,5.30
2019-03-29T23:26:41.899Z,5.90
2019-03-29T23:29:11.625Z,6.03
2019-03-29T23:31:41.191Z,6.00
2019-03-29T23:34:10.875Z,6.80
2019-03-29T23:36:40.430Z,7.00
2019-03-29T23:39:09.983Z,5.90
2019-03-29T23:41:39.622Z,5.90
2019-03-29T23:44:09.349Z,6.77
2019-03-29T23:46:38.921Z,7.67
2019-03-29T23:49:20.269Z,7.17
2019-03-29T23:51:40.229Z,5.07
2019-03-29T23:54:09.847Z,8.93
2019-03-29T23:56:39.444Z,5.00
2019-03-29T23:59:09.303Z,4.47
